Time;durP1;ratioP1;P1;durP2;ratioP2;P2;SDS_P1;SDS_P2;PMS_P1;PMS_P2;Temp;Humidity;BMP_temperature;BMP_pressure;BME280_temperature;BME280_humidity;BME280_pressure;Samples;Min_cycle;Max_cycle;Signal;HPM_P1;HPM_P2
2023/04/09 00:02:12;;;;;;;45.53;35.75;;;;;;;9.27;91.10;102421.69;5043659;28;20519;-63
2023/04/09 00:04:37;;;;;;;43.53;35.35;;;;;;;9.28;90.52;102419.91;5045827;28;20126;-63
2023/04/09 00:07:03;;;;;;;45.03;34.97;;;;;;;9.29;91.13;102422.41;5046302;28;20408;-63
2023/04/09 00:09:28;;;;;;;43.58;34.42;;;;;;;9.32;90.84;102425.81;5046552;28;20143;-63
2023/04/09 00:11:53;;;;;;;43.22;34.70;;;;;;;9.33;90.83;102414.25;5041638;28;20029;-63
2023/04/09 00:14:18;;;;;;;44.55;34.78;;;;;;;9.28;90.76;102415.44;5044492;28;20036;-63
2023/04/09 00:16:44;;;;;;;44.40;35.08;;;;;;;9.28;90.45;102418.06;5044365;28;20036;-63
2023/04/09 00:19:10;;;;;;;43.58;34.13;;;;;;;9.31;90.71;102411.72;5046107;28;20078;-63
2023/04/09 00:21:36;;;;;;;44.10;34.60;;;;;;;9.31;90.61;102410.88;5040945;28;20138;-63
2023/04/09 00:24:01;;;;;;;43.20;34.50;;;;;;;9.28;91.09;102411.97;5043463;28;20150;-63
2023/04/09 00:26:26;;;;;;;43.92;34.72;;;;;;;9.29;91.41;102419.75;5037299;28;20036;-63
2023/04/09 00:28:52;;;;;;;41.22;32.80;;;;;;;9.29;91.50;102408.34;5040689;28;20035;-63
2023/04/09 00:31:17;;;;;;;45.10;34.28;;;;;;;9.28;91.36;102404.84;5044721;28;20033;-63
2023/04/09 00:33:42;;;;;;;44.45;34.72;;;;;;;9.29;91.83;102409.16;5043482;28;20032;-63
2023/04/09 00:36:08;;;;;;;44.60;33.58;;;;;;;9.29;91.51;102403.06;5042437;28;20048;-63
2023/04/09 00:38:33;;;;;;;41.65;33.22;;;;;;;9.24;91.66;102399.91;5044621;28;20033;-63
2023/04/09 00:40:58;;;;;;;42.53;33.17;;;;;;;9.22;91.69;102407.94;5043928;28;20028;-63
2023/04/09 00:43:24;;;;;;;42.70;32.72;;;;;;;9.17;91.88;102402.13;5044294;28;20373;-63
2023/04/09 00:45:50;;;;;;;42.78;33.15;;;;;;;9.16;91.96;102405.75;5042723;28;20070;-63
2023/04/09 00:48:16;;;;;;;41.40;32.67;;;;;;;9.22;92.08;102407.13;5044841;28;20029;-62
2023/04/09 00:50:41;;;;;;;42.83;33.67;;;;;;;9.18;92.69;102406.47;5043624;28;20477;-63
2023/04/09 00:53:09;;;;;;;42.05;31.15;;;;;;;9.17;91.66;102403.97;5039030;28;20033;-62
2023/04/09 00:55:35;;;;;;;40.90;31.02;;;;;;;9.16;91.98;102408.41;5045058;28;20060;-63
2023/04/09 00:58:01;;;;;;;39.10;29.65;;;;;;;9.15;92.16;102399.63;5043889;28;20600;-63
2023/04/09 01:00:26;;;;;;;36.47;29.25;;;;;;;9.17;92.67;102399.50;5034728;28;20037;-62
2023/04/09 01:02:54;;;;;;;38.00;30.23;;;;;;;9.17;93.00;102399.50;5044152;28;20045;-63
2023/04/09 01:05:20;;;;;;;37.70;29.58;;;;;;;9.19;93.41;102402.91;5042635;28;20028;-63
2023/04/09 01:08:00;;;;;;;36.20;29.00;;;;;;;9.18;92.50;102398.53;5042657;28;20541;-63
2023/04/09 01:10:39;;;;;;;37.80;28.88;;;;;;;9.15;92.65;102396.13;5044434;28;20047;-63
2023/04/09 01:13:41;;;;;;;35.95;28.23;;;;;;;9.19;93.22;102392.31;5034671;28;20029;-63
2023/04/09 01:16:10;;;;;;;35.80;28.10;;;;;;;9.17;92.94;102396.03;5040324;28;20036;-63
2023/04/09 01:18:43;;;;;;;36.10;27.95;;;;;;;9.18;92.60;102389.75;5043081;28;20082;-63
2023/04/09 01:21:13;;;;;;;35.88;27.92;;;;;;;9.13;92.85;102379.53;5039877;28;20393;-63
2023/04/09 01:24:06;;;;;;;36.20;27.83;;;;;;;9.15;93.65;102385.53;5038152;28;20123;-63
2023/04/09 01:26:50;;;;;;;34.55;28.17;;;;;;;9.12;93.02;102381.31;5034755;28;20041;-63
2023/04/09 01:29:18;;;;;;;35.10;27.85;;;;;;;9.08;93.06;102384.31;5042361;28;20063;-63
2023/04/09 01:31:44;;;;;;;36.45;27.65;;;;;;;9.05;93.21;102376.59;5043621;28;20127;-63
2023/04/09 01:34:11;;;;;;;35.30;28.13;;;;;;;9.05;94.16;102384.53;5043478;28;20155;-63
2023/04/09 01:36:39;;;;;;;36.17;27.70;;;;;;;9.07;93.68;102385.28;5042078;28;20033;-63
2023/04/09 01:39:05;;;;;;;35.60;28.17;;;;;;;9.01;94.24;102384.78;5043333;28;20024;-63
2023/04/09 01:41:33;;;;;;;36.17;28.42;;;;;;;9.00;94.03;102383.09;5043423;28;20075;-63
2023/04/09 01:44:00;;;;;;;36.65;28.30;;;;;;;9.00;94.32;102377.78;5042264;28;20032;-62
2023/04/09 01:46:26;;;;;;;38.00;28.55;;;;;;;9.05;94.12;102379.22;5042298;28;20106;-63
2023/04/09 01:48:52;;;;;;;48.60;29.23;;;;;;;9.05;94.14;102379.22;5042143;28;20061;-63
2023/04/09 01:51:18;;;;;;;37.15;28.77;;;;;;;9.04;94.75;102378.41;5044544;28;20102;-63
2023/04/09 01:53:43;;;;;;;37.45;29.02;;;;;;;9.04;94.99;102367.81;5044040;28;20843;-63
2023/04/09 01:56:08;;;;;;;38.22;28.27;;;;;;;9.06;94.09;102375.63;5046606;28;20526;-63
2023/04/09 01:58:34;;;;;;;37.78;28.85;;;;;;;9.05;94.17;102379.22;5044251;28;20029;-62
2023/04/09 02:01:08;;;;;;;39.33;29.45;;;;;;;8.99;94.36;102373.44;5037207;28;20037;-63
2023/04/09 02:03:43;;;;;;;38.85;30.00;;;;;;;9.01;94.53;102378.63;5039065;28;20024;-63
2023/04/09 02:06:25;;;;;;;36.88;28.45;;;;;;;9.00;95.07;102372.50;5042123;28;20040;-63
2023/04/09 02:08:51;;;;;;;39.10;29.50;;;;;;;9.00;94.27;102377.78;5042755;28;20154;-63
2023/04/09 02:11:18;;;;;;;37.97;29.38;;;;;;;8.97;94.67;102383.28;5038415;28;20029;-63
2023/04/09 02:13:44;;;;;;;39.88;30.63;;;;;;;8.97;94.98;102377.16;5043567;28;20043;-63
2023/04/09 02:16:12;;;;;;;39.20;30.17;;;;;;;8.99;95.36;102381.38;5045671;28;20091;-63
2023/04/09 02:18:37;;;;;;;38.55;30.25;;;;;;;8.96;95.20;102368.38;5046624;28;20043;-63
2023/04/09 02:21:04;;;;;;;41.58;31.75;;;;;;;8.98;95.71;102369.09;5046615;28;20459;-63
2023/04/09 02:23:32;;;;;;;42.50;32.00;;;;;;;8.94;95.44;102372.91;5048063;28;20091;-62
2023/04/09 02:25:58;;;;;;;41.15;30.92;;;;;;;8.95;95.86;102369.34;5040840;28;20029;-63
2023/04/09 02:28:23;;;;;;;43.05;32.40;;;;;;;8.93;95.80;102365.94;5039779;28;20090;-63
2023/04/09 02:30:48;;;;;;;43.55;32.13;;;;;;;8.92;96.49;102369.56;5042260;28;20028;-63
2023/04/09 02:33:14;;;;;;;41.90;31.98;;;;;;;8.91;96.27;102362.59;5046989;28;20036;-63
2023/04/09 02:35:39;;;;;;;42.85;32.83;;;;;;;8.92;96.06;102369.56;5044714;28;20040;-63
2023/04/09 02:38:04;;;;;;;44.20;32.83;;;;;;;8.94;96.91;102367.63;5045934;28;20050;-63
2023/04/09 02:40:30;;;;;;;44.80;32.25;;;;;;;8.92;96.33;102363.44;5041274;28;20045;-63
2023/04/09 02:42:56;;;;;;;44.92;32.90;;;;;;;8.92;95.85;102363.44;5047702;28;20060;-63
2023/04/09 02:45:21;;;;;;;45.55;32.60;;;;;;;8.92;95.97;102360.78;5047254;28;20053;-62
2023/04/09 02:47:46;;;;;;;44.38;33.10;;;;;;;8.91;95.76;102357.28;5046221;28;20482;-63
2023/04/09 02:50:12;;;;;;;44.58;33.58;;;;;;;8.90;96.01;102355.59;5047509;28;20961;-63
2023/04/09 02:52:37;;;;;;;46.22;34.10;;;;;;;8.91;96.30;102352.00;5046569;28;20033;-63
2023/04/09 02:55:02;;;;;;;46.38;33.88;;;;;;;8.87;96.29;102355.81;5046949;28;20041;-63
2023/04/09 02:57:28;;;;;;;44.63;33.28;;;;;;;8.88;96.35;102352.22;5046025;28;20057;-63
2023/04/09 02:59:54;;;;;;;44.28;33.00;;;;;;;8.87;95.98;102355.81;5046450;28;20036;-63
2023/04/09 03:02:20;;;;;;;45.63;33.60;;;;;;;8.88;96.59;102346.91;5045282;28;20055;-64
2023/04/09 03:04:45;;;;;;;45.05;33.28;;;;;;;8.85;95.96;102345.38;5046260;28;20037;-63
2023/04/09 03:07:10;;;;;;;47.00;33.40;;;;;;;8.81;96.82;102350.97;5044860;28;20487;-63
2023/04/09 03:09:36;;;;;;;45.38;33.47;;;;;;;8.80;97.13;102339.56;5044951;28;20037;-63
2023/04/09 03:12:01;;;;;;;46.17;34.80;;;;;;;8.78;97.24;102344.09;5040204;28;20493;-63
2023/04/09 03:14:27;;;;;;;46.83;34.17;;;;;;;8.78;97.70;102341.47;5043910;28;20039;-63
2023/04/09 03:16:52;;;;;;;46.83;34.03;;;;;;;8.75;98.04;102337.25;5045419;28;20075;-63
2023/04/09 03:19:17;;;;;;;46.75;33.90;;;;;;;8.75;96.95;102337.25;5046347;28;20415;-63
2023/04/09 03:21:43;;;;;;;46.70;34.72;;;;;;;8.78;97.57;102340.63;5044788;28;20032;-63
2023/04/09 03:24:08;;;;;;;48.28;34.65;;;;;;;8.73;97.25;102333.88;5046303;28;20033;-63
2023/04/09 03:26:37;;;;;;;47.40;34.22;;;;;;;8.78;97.46;102330.06;5044712;28;20033;-63
2023/04/09 03:29:03;;;;;;;49.25;34.70;;;;;;;8.74;97.74;102334.72;5045377;28;20103;-63
2023/04/09 03:31:29;;;;;;;50.03;35.17;;;;;;;8.75;97.15;102336.41;5044933;28;20056;-63
2023/04/09 03:33:54;;;;;;;50.63;34.88;;;;;;;8.75;97.26;102337.25;5044960;28;20102;-63
2023/04/09 03:36:19;;;;;;;47.58;34.15;;;;;;;8.77;97.77;102331.03;5044781;28;20036;-63
2023/04/09 03:38:45;;;;;;;49.67;35.63;;;;;;;8.75;97.02;102331.94;5045306;28;20033;-63
2023/04/09 03:41:10;;;;;;;50.28;35.83;;;;;;;8.72;97.28;102329.53;5045371;28;20059;-63
2023/04/09 03:43:35;;;;;;;49.55;35.92;;;;;;;8.72;97.62;102326.91;5043543;28;20033;-63
2023/04/09 03:46:01;;;;;;;53.03;36.70;;;;;;;8.70;97.59;102325.31;5043733;28;20049;-63
2023/04/09 03:48:26;;;;;;;52.38;36.38;;;;;;;8.68;97.12;102327.25;5045540;28;20051;-63
2023/04/09 03:50:52;;;;;;;52.83;35.97;;;;;;;8.68;97.77;102325.44;5037810;28;20040;-63
2023/04/09 03:53:18;;;;;;;51.88;36.53;;;;;;;8.67;98.38;102329.03;5041907;28;20109;-63
2023/04/09 03:55:43;;;;;;;52.65;36.78;;;;;;;8.70;98.23;102327.97;5036048;28;20120;-63
2023/04/09 03:58:08;;;;;;;53.13;38.22;;;;;;;8.65;97.76;102320.38;5045704;28;20556;-63
2023/04/09 04:00:33;;;;;;;58.95;37.72;;;;;;;8.66;97.98;102329.13;5044210;28;20400;-63
2023/04/09 04:02:59;;;;;;;55.15;37.95;;;;;;;8.64;98.76;102318.69;5039521;28;20354;-63
2023/04/09 04:05:25;;;;;;;52.53;36.83;;;;;;;8.66;98.63;102326.50;5043208;28;20037;-63
2023/04/09 04:07:50;;;;;;;54.30;38.53;;;;;;;8.63;98.53;102322.28;5045150;28;20135;-63
2023/04/09 04:10:16;;;;;;;54.40;38.03;;;;;;;8.63;98.61;102327.56;5045915;28;20032;-63
2023/04/09 04:12:41;;;;;;;55.05;38.67;;;;;;;8.62;98.02;102320.59;5042086;28;20571;-63
2023/04/09 04:15:07;;;;;;;54.05;38.40;;;;;;;8.61;98.15;102324.19;5046049;28;20031;-63
2023/04/09 04:17:32;;;;;;;56.22;38.92;;;;;;;8.59;98.08;102332.22;5044769;28;20043;-63
2023/04/09 04:19:57;;;;;;;55.13;38.53;;;;;;;8.56;97.62;102331.59;5039231;28;20392;-63
2023/04/09 04:22:23;;;;;;;54.47;38.28;;;;;;;8.53;97.87;102331.84;5041225;28;20029;-63
2023/04/09 04:24:48;;;;;;;54.95;38.33;;;;;;;8.52;97.72;102330.13;5044723;28;20044;-63
2023/04/09 04:27:13;;;;;;;50.38;36.30;;;;;;;8.47;97.91;102323.38;5044616;28;20569;-63
2023/04/09 04:29:38;;;;;;;54.00;37.28;;;;;;;8.46;97.96;102324.34;5045157;28;20037;-63
2023/04/09 04:32:04;;;;;;;52.28;36.85;;;;;;;8.47;97.68;102318.09;5043286;28;20401;-63
2023/04/09 04:34:29;;;;;;;53.58;38.30;;;;;;;8.46;97.43;102315.53;5044585;28;20948;-63
2023/04/09 04:36:55;;;;;;;50.22;37.10;;;;;;;8.42;96.48;102320.22;5044209;28;20036;-63
2023/04/09 04:39:20;;;;;;;54.13;37.17;;;;;;;8.39;96.83;102315.13;5044161;28;20395;-63
2023/04/09 04:41:45;;;;;;;52.25;36.88;;;;;;;8.39;97.34;102320.41;5044932;28;20051;-63
2023/04/09 04:44:10;;;;;;;54.17;36.83;;;;;;;8.35;96.85;102322.44;5043598;28;20025;-63
2023/04/09 04:46:36;;;;;;;47.80;33.85;;;;;;;8.33;96.38;102324.34;5040000;28;20443;-63
2023/04/09 04:49:01;;;;;;;49.00;34.97;;;;;;;8.29;96.45;102327.34;5035297;28;20079;-63
2023/04/09 04:51:30;;;;;;;49.00;34.03;;;;;;;8.26;96.65;102324.91;5043101;28;20041;-63
2023/04/09 04:53:55;;;;;;;48.95;33.67;;;;;;;8.19;95.80;102327.97;5042043;28;20735;-63
2023/04/09 04:56:20;;;;;;;46.13;33.30;;;;;;;8.12;95.94;102326.72;5044253;28;20048;-62
2023/04/09 04:58:46;;;;;;;47.10;32.95;;;;;;;8.04;95.77;102327.25;5040297;28;20029;-63
2023/04/09 05:01:11;;;;;;;45.67;31.95;;;;;;;8.00;95.65;102330.25;5035428;28;20071;-63
2023/04/09 05:03:36;;;;;;;46.90;31.65;;;;;;;7.94;95.09;102324.44;5038834;28;20036;-63
2023/04/09 05:06:02;;;;;;;45.38;31.08;;;;;;;7.86;94.71;102326.78;5041890;28;20033;-63
2023/04/09 05:08:27;;;;;;;47.20;30.83;;;;;;;7.82;94.69;102330.56;5043279;28;20039;-63
2023/04/09 05:10:55;;;;;;;48.58;31.95;;;;;;;7.74;94.63;102325.81;5040972;28;20029;-63
2023/04/09 05:13:20;;;;;;;46.63;31.17;;;;;;;7.68;94.58;102326.25;5043996;28;20041;-63
2023/04/09 05:15:46;;;;;;;47.03;31.80;;;;;;;7.60;94.86;102324.13;5041986;28;20503;-63
2023/04/09 05:18:11;;;;;;;46.00;30.45;;;;;;;7.56;95.07;102322.66;5044298;28;20086;-62
2023/04/09 05:20:36;;;;;;;47.42;31.17;;;;;;;7.54;94.71;102324.53;5044354;28;20032;-63
2023/04/09 05:23:02;;;;;;;46.85;31.67;;;;;;;7.52;94.84;102332.59;5044815;28;20072;-63
2023/04/09 05:25:27;;;;;;;48.53;31.95;;;;;;;7.43;95.02;102332.34;5042304;28;20053;-63
2023/04/09 05:27:52;;;;;;;44.35;30.63;;;;;;;7.45;95.27;102331.28;5052963;28;20048;-63
2023/04/09 05:30:18;;;;;;;47.45;31.67;;;;;;;7.46;95.48;102326.88;5045398;28;20028;-63
2023/04/09 05:32:43;;;;;;;49.42;32.47;;;;;;;7.40;94.67;102333.38;5043527;28;20028;-63
2023/04/09 05:35:08;;;;;;;49.88;32.20;;;;;;;7.43;95.10;102329.69;5041732;28;20041;-63
2023/04/09 05:37:34;;;;;;;44.58;30.98;;;;;;;7.44;95.41;102334.06;5042730;28;20032;-63
2023/04/09 05:39:59;;;;;;;49.15;32.45;;;;;;;7.39;95.41;102332.56;5044376;28;20509;-63
2023/04/09 05:42:25;;;;;;;47.00;32.00;;;;;;;7.39;95.24;102329.06;5042722;28;20039;-63
2023/04/09 05:44:50;;;;;;;47.20;32.38;;;;;;;7.32;95.35;102326.00;5038201;28;20472;-63
2023/04/09 05:47:16;;;;;;;47.30;31.55;;;;;;;7.36;95.61;102326.66;5041887;28;20068;-63
2023/04/09 05:49:41;;;;;;;45.92;31.95;;;;;;;7.37;95.60;102329.19;5044118;28;20091;-63
2023/04/09 05:52:07;;;;;;;48.78;32.13;;;;;;;7.35;96.11;102331.06;5047641;28;20087;-63
2023/04/09 05:54:32;;;;;;;45.97;31.25;;;;;;;7.37;95.39;102333.59;5048826;28;20041;-63
2023/04/09 05:56:57;;;;;;;48.05;31.27;;;;;;;7.36;95.55;102335.38;5041260;28;20065;-62
2023/04/09 05:59:23;;;;;;;45.20;31.92;;;;;;;7.31;95.34;102329.59;5046572;28;21106;-62
2023/04/09 06:01:48;;;;;;;46.42;31.73;;;;;;;7.36;95.67;102338.03;5045868;28;20052;-63
2023/04/09 06:04:13;;;;;;;49.33;32.45;;;;;;;7.33;95.34;102343.53;5046016;28;20060;-63
2023/04/09 06:06:39;;;;;;;47.55;31.08;;;;;;;7.40;95.54;102347.44;5042241;28;20037;-63
2023/04/09 06:09:04;;;;;;;45.53;32.33;;;;;;;7.44;95.94;102336.69;5048218;28;20116;-63
2023/04/09 06:11:30;;;;;;;48.40;32.10;;;;;;;7.43;94.97;102342.88;5045070;28;20041;-63
2023/04/09 06:13:55;;;;;;;45.28;31.92;;;;;;;7.52;95.77;102347.56;5038918;28;20108;-63
2023/04/09 06:16:21;;;;;;;49.00;32.45;;;;;;;7.52;96.10;102344.91;5047232;28;20036;-63
2023/04/09 06:18:48;;;;;;;47.03;31.33;;;;;;;7.54;95.29;102340.38;5044978;28;20106;-63
2023/04/09 06:21:14;;;;;;;47.25;32.63;;;;;;;7.58;95.67;102347.16;5046560;28;20033;-63
2023/04/09 06:23:39;;;;;;;46.47;32.03;;;;;;;7.63;95.27;102347.69;5047813;28;20048;-63
2023/04/09 06:26:05;;;;;;;45.15;30.92;;;;;;;7.65;95.22;102350.22;5041077;28;20517;-63
2023/04/09 06:28:31;;;;;;;48.85;32.13;;;;;;;7.65;94.84;102343.13;5047596;28;20500;-63
2023/04/09 06:30:56;;;;;;;46.83;32.05;;;;;;;7.62;94.42;102353.06;5047002;28;20385;-64
2023/04/09 06:33:22;;;;;;;47.05;32.65;;;;;;;7.59;94.65;102354.09;5047925;28;20068;-63
2023/04/09 06:35:48;;;;;;;46.60;31.65;;;;;;;7.63;94.38;102350.31;5038755;28;20124;-63
2023/04/09 06:38:14;;;;;;;48.35;31.77;;;;;;;7.61;94.56;102346.91;5041176;28;20811;-63
2023/04/09 06:40:40;;;;;;;47.90;32.53;;;;;;;7.64;95.09;102352.00;5056986;28;20043;-63
2023/04/09 06:43:05;;;;;;;48.63;33.28;;;;;;;7.68;94.83;102350.00;5045589;28;20029;-63
2023/04/09 06:45:32;;;;;;;46.88;31.95;;;;;;;7.72;95.17;102363.84;5045886;28;20096;-64
2023/04/09 06:47:57;;;;;;;48.03;32.42;;;;;;;7.77;95.01;102356.44;5047810;28;20412;-63
2023/04/09 06:50:23;;;;;;;47.38;31.83;;;;;;;7.81;95.00;102364.03;5046942;28;20079;-63
2023/04/09 06:52:49;;;;;;;47.00;32.55;;;;;;;7.81;94.84;102365.84;5047635;28;20480;-63
2023/04/09 06:55:14;;;;;;;49.53;33.00;;;;;;;7.86;94.90;102362.88;5046123;28;20447;-63
2023/04/09 06:57:39;;;;;;;48.22;32.88;;;;;;;7.86;94.83;102365.53;5043392;28;20522;-63
2023/04/09 07:00:05;;;;;;;50.05;34.28;;;;;;;7.86;94.56;102371.69;5044164;28;20033;-63
2023/04/09 07:02:31;;;;;;;50.40;33.38;;;;;;;7.92;94.86;102365.97;5045209;28;20048;-63
2023/04/09 07:04:56;;;;;;;48.13;34.03;;;;;;;7.99;94.57;102369.00;5040328;28;20028;-63
2023/04/09 07:07:21;;;;;;;50.42;35.65;;;;;;;8.06;94.10;102366.78;5044186;28;20118;-62
2023/04/09 07:09:50;;;;;;;49.50;34.25;;;;;;;8.11;94.04;102359.41;5042662;28;20032;-62
2023/04/09 07:12:28;;;;;;;49.08;34.00;;;;;;;8.11;93.36;102364.69;5037882;28;20029;-63
2023/04/09 07:15:01;;;;;;;48.40;34.13;;;;;;;8.15;92.95;102368.78;5032504;28;20175;-62
2023/04/09 07:17:26;;;;;;;47.25;33.22;;;;;;;8.24;92.82;102369.94;5046872;28;20032;-63
2023/04/09 07:19:53;;;;;;;47.05;33.55;;;;;;;8.29;93.64;102367.81;5032531;28;20036;-63
2023/04/09 07:22:19;;;;;;;48.63;35.53;;;;;;;8.29;92.28;102369.63;5045947;28;20060;-63
2023/04/09 07:24:45;;;;;;;46.75;34.08;;;;;;;8.37;92.67;102369.91;5045974;28;20503;-64
2023/04/09 07:27:11;;;;;;;47.90;35.13;;;;;;;8.46;91.73;102371.06;5045901;28;20028;-63
2023/04/09 07:29:36;;;;;;;47.00;34.80;;;;;;;8.55;91.79;102369.59;5045110;28;20485;-63
2023/04/09 07:32:02;;;;;;;49.40;35.08;;;;;;;8.61;91.55;102372.66;5040708;28;20074;-63
2023/04/09 07:34:27;;;;;;;46.33;33.85;;;;;;;8.64;90.87;102371.59;5042750;28;20025;-63
2023/04/09 07:36:53;;;;;;;47.72;34.13;;;;;;;8.65;90.69;102367.97;5048918;28;20024;-63
2023/04/09 07:39:19;;;;;;;46.40;34.00;;;;;;;8.66;90.20;102369.66;5046037;28;20040;-63
2023/04/09 07:41:46;;;;;;;47.05;34.47;;;;;;;8.76;90.77;102372.47;5032198;28;20033;-63
2023/04/09 07:44:12;;;;;;;47.63;34.65;;;;;;;8.88;90.67;102368.94;5041862;28;20129;-63
2023/04/09 07:46:38;;;;;;;49.10;35.75;;;;;;;8.98;90.83;102369.09;5045527;28;20415;-63
2023/04/09 07:49:04;;;;;;;51.20;36.70;;;;;;;9.06;89.94;102368.53;5045544;28;20028;-63
2023/04/09 07:51:30;;;;;;;48.13;35.58;;;;;;;9.13;89.88;102367.13;5046238;28;20033;-63
2023/04/09 07:53:55;;;;;;;47.60;34.83;;;;;;;9.20;89.50;102371.97;5044666;28;20376;-63
2023/04/09 07:56:21;;;;;;;48.08;34.55;;;;;;;9.26;90.01;102371.50;5046500;28;20075;-63
2023/04/09 07:58:48;;;;;;;51.47;35.97;;;;;;;9.36;89.24;102371.66;5030830;28;20039;-64
2023/04/09 08:01:13;;;;;;;48.83;37.25;;;;;;;9.48;89.09;102372.53;5045971;28;20048;-64
2023/04/09 08:03:38;;;;;;;46.42;35.28;;;;;;;9.55;87.76;102360.50;5043298;28;20037;-62
2023/04/09 08:06:04;;;;;;;46.58;35.28;;;;;;;9.58;88.13;102362.09;5043044;28;20036;-63
2023/04/09 08:08:29;;;;;;;47.03;34.85;;;;;;;9.59;87.03;102366.41;5042138;28;20044;-63
2023/04/09 08:10:55;;;;;;;49.97;36.70;;;;;;;9.65;87.55;102360.66;5043443;28;20392;-63
2023/04/09 08:13:23;;;;;;;47.30;35.65;;;;;;;9.67;87.53;102364.03;5042911;28;20468;-63
2023/04/09 08:15:48;;;;;;;47.40;35.30;;;;;;;9.77;87.17;102362.34;5043145;28;20046;-63
2023/04/09 08:18:13;;;;;;;47.25;35.88;;;;;;;9.77;87.03;102354.41;5040224;28;20556;-63
2023/04/09 08:20:43;;;;;;;47.88;36.33;;;;;;;9.87;86.36;102359.00;5039510;28;20033;-63
2023/04/09 08:23:09;;;;;;;49.58;36.30;;;;;;;9.88;86.35;102365.97;5045111;28;20036;-64
2023/04/09 08:25:34;;;;;;;47.28;36.50;;;;;;;9.90;86.40;102369.34;5042065;28;20088;-63
2023/04/09 08:27:59;;;;;;;49.10;37.38;;;;;;;9.89;86.09;102362.38;5045820;28;20035;-63
2023/04/09 08:30:25;;;;;;;49.97;37.15;;;;;;;9.92;86.70;102367.44;5041304;28;20781;-63
2023/04/09 08:32:50;;;;;;;49.72;37.95;;;;;;;9.94;86.38;102365.50;5045163;28;20056;-63
2023/04/09 08:35:15;;;;;;;47.35;36.50;;;;;;;10.03;87.05;102363.94;5040249;28;20037;-64
2023/04/09 08:37:40;;;;;;;47.33;37.10;;;;;;;10.09;86.57;102369.63;5043657;28;20461;-63
2023/04/09 08:40:07;;;;;;;46.42;36.30;;;;;;;10.18;85.92;102361.91;5035886;28;20037;-63
2023/04/09 08:42:33;;;;;;;49.63;38.47;;;;;;;10.26;85.88;102364.78;5044995;28;20033;-63
2023/04/09 08:44:58;;;;;;;49.33;37.08;;;;;;;10.31;84.61;102361.78;5044128;28;21096;-63
2023/04/09 08:47:24;;;;;;;49.17;37.13;;;;;;;10.41;85.02;102361.88;5044188;28;20060;-63
2023/04/09 08:49:50;;;;;;;47.53;36.75;;;;;;;10.36;83.02;102365.72;5042655;28;20038;-63
2023/04/09 08:52:20;;;;;;;45.72;36.60;;;;;;;10.34;83.44;102362.38;5041733;28;20036;-64
2023/04/09 08:54:45;;;;;;;47.75;36.53;;;;;;;10.36;84.25;102360.44;5043773;28;20033;-63
2023/04/09 08:57:11;;;;;;;47.88;37.28;;;;;;;10.36;84.92;102355.13;5044658;28;20063;-64
2023/04/09 08:59:36;;;;;;;44.80;35.83;;;;;;;10.40;84.50;102360.19;5044742;28;20056;-64
2023/04/09 09:02:07;;;;;;;46.75;36.35;;;;;;;10.38;83.44;102356.81;5044588;28;20059;-64
2023/04/09 09:04:48;;;;;;;46.53;36.58;;;;;;;10.42;84.13;102360.91;5038307;28;20378;-64
2023/04/09 09:07:15;;;;;;;48.95;37.80;;;;;;;10.45;85.05;102363.34;5041991;28;20047;-64
2023/04/09 09:10:02;;;;;;;49.55;37.97;;;;;;;10.50;84.74;102361.16;5043019;28;20931;-66
2023/04/09 09:12:35;;;;;;;48.50;36.10;;;;;;;10.55;84.70;102358.97;5038750;28;20048;-64
2023/04/09 09:15:01;;;;;;;48.55;37.35;;;;;;;10.59;82.51;102359.56;5035185;28;20064;-64
2023/04/09 09:17:27;;;;;;;47.40;36.65;;;;;;;10.69;83.95;102354.34;5035870;28;20068;-64
2023/04/09 09:19:53;;;;;;;45.38;36.25;;;;;;;10.74;82.93;102357.47;5034805;28;20124;-64
2023/04/09 09:22:18;;;;;;;49.17;37.28;;;;;;;10.84;83.63;102353.13;5032658;28;20061;-62
2023/04/09 09:24:51;;;;;;;47.13;36.22;;;;;;;10.95;82.58;102360.19;5036261;28;20051;-62
2023/04/09 09:27:38;;;;;;;46.47;36.80;;;;;;;11.10;82.95;102355.44;5033621;28;20025;-62
2023/04/09 09:30:04;;;;;;;45.55;34.90;;;;;;;11.27;82.46;102353.19;5039501;28;20124;-63
2023/04/09 09:32:31;;;;;;;45.15;35.30;;;;;;;11.39;79.11;102353.94;5034270;28;20247;-63
2023/04/09 09:34:58;;;;;;;44.25;35.22;;;;;;;11.40;77.61;102348.50;5034220;28;20090;-63
2023/04/09 09:37:27;;;;;;;41.63;32.47;;;;;;;11.51;77.96;102349.44;5033689;28;20108;-63
2023/04/09 09:39:53;;;;;;;38.10;30.35;;;;;;;11.61;77.03;102350.34;5035550;28;20067;-63
2023/04/09 09:42:18;;;;;;;41.92;32.97;;;;;;;11.66;77.93;102347.28;5036439;28;20062;-63
2023/04/09 09:44:44;;;;;;;41.75;32.40;;;;;;;11.75;78.12;102340.31;5037704;28;20408;-63
2023/04/09 09:47:12;;;;;;;42.00;32.25;;;;;;;11.76;76.19;102339.34;5037642;28;20044;-64
2023/04/09 09:49:37;;;;;;;38.85;31.80;;;;;;;11.88;76.46;102335.63;5036858;28;20169;-63
2023/04/09 09:52:09;;;;;;;38.25;30.27;;;;;;;11.94;74.66;102329.78;5039228;28;20488;-63
2023/04/09 09:54:42;;;;;;;36.60;28.67;;;;;;;12.09;75.01;102332.13;5036164;28;20033;-63
2023/04/09 09:57:13;;;;;;;;;;;;;;;12.19;76.97;102327.66;5038079;28;20488;-63
2023/04/09 09:59:49;;;;;;;38.17;30.10;;;;;;;12.16;73.77;102322.63;5036823;28;19966;-62
2023/04/09 10:02:22;;;;;;;36.78;28.02;;;;;;;12.28;73.06;102325.16;5038647;28;20032;-63
2023/04/09 10:04:49;;;;;;;36.80;28.83;;;;;;;12.30;72.16;102320.53;5039572;28;20036;-64
2023/04/09 10:07:16;;;;;;;34.17;26.52;;;;;;;12.32;71.04;102315.91;5037930;28;20060;-63
2023/04/09 10:09:47;;;;;;;32.33;25.75;;;;;;;12.39;70.61;102317.09;5032865;28;20041;-63
2023/04/09 10:12:13;;;;;;;31.05;25.05;;;;;;;12.45;71.02;102316.53;5039123;28;20032;-63
2023/04/09 10:14:39;;;;;;;34.13;26.63;;;;;;;12.42;71.35;102315.94;5040593;28;20056;-64
2023/04/09 10:17:04;;;;;;;31.65;25.67;;;;;;;12.35;69.40;102310.34;5040202;28;20037;-63
2023/04/09 10:19:34;;;;;;;35.78;29.17;;;;;;;12.25;72.35;102305.00;5040935;28;20036;-63
2023/04/09 10:22:09;;;;;;;37.25;29.25;;;;;;;12.21;72.91;102304.44;5040829;28;20170;-64
2023/04/09 10:24:35;;;;;;;35.05;27.73;;;;;;;12.22;72.84;102305.25;5036439;28;20403;-63
2023/04/09 10:27:11;;;;;;;33.35;26.50;;;;;;;12.23;72.82;102305.13;5033817;28;20112;-63
2023/04/09 10:29:45;;;;;;;33.13;26.92;;;;;;;12.16;71.85;102298.69;5041618;28;20064;-63
2023/04/09 10:32:10;;;;;;;35.63;28.77;;;;;;;12.17;73.44;102296.84;5041289;28;20450;-63
2023/04/09 10:34:43;;;;;;;33.65;25.63;;;;;;;12.11;72.14;102299.06;5041099;28;20033;-64
2023/04/09 10:37:15;;;;;;;39.38;28.50;;;;;;;12.10;71.15;102288.59;5040366;28;20067;-63
2023/04/09 10:39:46;;;;;;;32.33;25.70;;;;;;;12.33;71.28;102291.03;5046476;28;20890;-63
2023/04/09 10:42:14;;;;;;;30.88;24.42;;;;;;;12.48;68.49;102284.31;5045024;28;20283;-63
2023/04/09 10:44:42;;;;;;;32.10;25.65;;;;;;;12.56;68.93;102285.44;5044183;28;20037;-64
2023/04/09 10:47:09;;;;;;;27.98;21.67;;;;;;;12.55;68.21;102289.06;5045123;28;20049;-64
2023/04/09 10:49:41;;;;;;;32.28;24.70;;;;;;;12.49;68.23;102285.97;5042424;28;20760;-64
2023/04/09 10:52:09;;;;;;;26.40;20.43;;;;;;;12.59;68.33;102279.84;5039755;28;20036;-64
2023/04/09 10:54:34;;;;;;;24.40;18.60;;;;;;;12.74;66.77;102277.59;5038665;28;20299;-64
2023/04/09 10:57:06;;;;;;;22.30;17.20;;;;;;;12.95;65.44;102269.47;5039579;28;20036;-64
2023/04/09 10:59:32;;;;;;;23.08;17.75;;;;;;;13.00;64.53;102267.22;5039005;28;20503;-64
2023/04/09 11:01:57;;;;;;;24.13;17.05;;;;;;;13.03;62.66;102264.25;5038170;28;20456;-64
2023/04/09 11:04:33;;;;;;;21.83;16.30;;;;;;;13.21;62.78;102258.19;5035605;28;20053;-64
2023/04/09 11:07:00;;;;;;;23.15;17.85;;;;;;;13.19;62.68;102265.50;5034940;28;20515;-64
2023/04/09 11:09:26;;;;;;;22.85;17.55;;;;;;;13.29;63.74;102261.00;5036178;28;20079;-63
2023/04/09 11:11:56;;;;;;;20.52;16.23;;;;;;;13.39;60.06;102260.13;5035537;28;20544;-64
2023/04/09 11:14:22;;;;;;;22.63;16.50;;;;;;;13.52;59.99;102252.66;5040642;28;20077;-64